Time;durP1;ratioP1;P1;durP2;ratioP2;P2;SDS_P1;SDS_P2;PMS_P1;PMS_P2;Temp;Humidity;BMP_temperature;BMP_pressure;BME280_temperature;BME280_humidity;BME280_pressure;Samples;Min_cycle;Max_cycle;Signal;HPM_P1;HPM_P2
2021/10/28 00:12:57;;;;;;;;;;;;;;;-144.99;96.91;52501.09;5089883;28;20122;-62
2021/10/28 00:15:29;;;;;;;;;;;;;;;-144.99;96.85;52497.00;5084263;28;21257;-63
2021/10/28 00:18:10;;;;;;;;;;;;;;;-144.99;96.56;52456.25;5090290;28;19988;-65
2021/10/28 00:20:37;;;;;;;;;;;;;;;-144.99;96.29;52492.94;5084674;28;19976;-68
2021/10/28 00:23:03;;;;;;;;;;;;;;;-144.99;96.91;52505.16;5088616;28;20645;-67
2021/10/28 00:25:30;;;;;;;;;;;;;;;-144.99;96.82;52497.00;5090019;28;19995;-68
2021/10/28 00:27:56;;;;;;;;;;;;;;;-144.99;96.92;52505.16;5091339;28;19994;-65
2021/10/28 00:30:22;;;;;;;;;;;;;;;-144.99;97.69;52521.47;5090247;28;19991;-64
2021/10/28 00:32:49;;;;;;;;;;;;;;;-144.99;98.14;52501.09;5089938;28;20341;-65
2021/10/28 00:35:17;;;;;;;;;;;;;;;-144.99;98.21;52497.00;5088843;28;19972;-66
2021/10/28 00:37:43;;;;;;;;;;;;;;;-144.99;98.56;52468.47;5089486;28;19980;-65
2021/10/28 00:40:10;;;;;;;;;;;;;;;-144.99;98.36;52525.56;5089772;28;20427;-64
2021/10/28 00:42:37;;;;;;;;;;;;;;;-144.99;98.72;52507.19;5089918;28;20022;-64
2021/10/28 00:45:05;;;;;;;;;;;;;;;-144.99;98.33;52478.66;5089847;28;19946;-64
2021/10/28 00:47:34;;;;;;;;;;;;;;;-144.99;98.52;52476.63;5090349;28;20003;-64
2021/10/28 00:50:01;;;;;;;;;;;;;;;-144.99;98.76;52525.56;5090153;28;20042;-63
2021/10/28 00:52:28;;;;;;;;;;;;;;;-144.99;98.91;52523.50;5089217;28;20000;-61
2021/10/28 00:54:55;;;;;;;;;;;;;;;-144.99;98.85;52497.00;5088858;28;20334;-63
2021/10/28 00:57:21;;;;;;;;;;;;;;;-144.99;99.61;52497.00;5088830;28;19982;-65
2021/10/28 00:59:48;;;;;;;;;;;;;;;-144.99;99.29;52456.25;5089294;28;19984;-65
2021/10/28 01:02:14;;;;;;;;;;;;;;;-144.99;99.78;52488.84;5089687;28;20023;-65
2021/10/28 01:04:41;;;;;;;;;;;;;;;-144.99;100.00;52505.16;5089733;28;20442;-65
2021/10/28 01:07:08;;;;;;;;;;;;;;;-144.99;99.88;52478.66;5088709;28;19986;-65
2021/10/28 01:09:35;;;;;;;;;;;;;;;-144.99;100.00;52513.31;5088678;28;19985;-65
2021/10/28 01:12:02;;;;;;;;;;;;;;;-144.99;100.00;52509.25;5088816;28;19997;-65
2021/10/28 01:14:39;;;;;;;;;;;;;;;-144.99;100.00;52480.72;5085767;28;20579;-65
2021/10/28 01:17:06;;;;;;;;;;;;;;;-144.99;100.00;52499.06;5081379;28;19977;-64
2021/10/28 01:19:32;;;;;;;;;;;;;;;-144.99;100.00;52501.09;5089783;28;19987;-64
2021/10/28 01:22:00;;;;;;;;;;;;;;;-144.99;100.00;52509.25;5089103;28;20508;-65
2021/10/28 01:24:26;;;;;;;;;;;;;;;-144.99;100.00;52482.75;5088336;28;20086;-66
2021/10/28 01:26:52;;;;;;;;;;;;;;;-144.99;100.00;52515.34;5088560;28;20395;-63
2021/10/28 01:29:19;;;;;;;;;;;;;;;-144.99;100.00;52505.16;4740225;28;10000007;-67
2021/10/28 01:31:45;;;;;;;;;;;;;;;-144.99;100.00;52517.41;5088265;28;20375;-67
2021/10/28 01:34:14;;;;;;;;;;;;;;;-144.99;100.00;52505.16;5088405;28;19985;-66
2021/10/28 01:36:40;;;;;;;;;;;;;;;-144.99;100.00;52529.63;5088404;28;19984;-66
2021/10/28 01:39:18;;;;;;;;;;;;;;;-144.99;100.00;52507.19;5088821;28;20309;-66
2021/10/28 01:41:44;;;;;;;;;;;;;;;-144.99;100.00;52507.19;5089761;28;19980;-65
2021/10/28 01:44:11;;;;;;;;;;;;;;;-144.99;100.00;52533.69;5090571;28;20487;-64
2021/10/28 01:46:37;;;;;;;;;;;;;;;-144.99;100.00;52513.31;5091472;28;20037;-66
2021/10/28 01:49:03;;;;;;;;;;;;;;;-144.99;100.00;52513.31;5089749;28;20226;-63
2021/10/28 01:51:30;;;;;;;;;;;;;;;-144.99;100.00;52499.06;5090678;28;20106;-64
2021/10/28 01:53:56;;;;;;;;;;;;;;;-144.99;100.00;52484.78;5090964;28;19991;-64
2021/10/28 01:56:24;;;;;;;;;;;;;;;-144.99;100.00;52494.97;5091182;28;19992;-64
2021/10/28 01:58:52;;;;;;;;;;;;;;;-144.99;100.00;52529.63;5090933;28;20154;-64
2021/10/28 02:01:18;;;;;;;;;;;;;;;-144.99;100.00;52521.47;5090886;28;20404;-64
2021/10/28 02:03:45;;;;;;;;;;;;;;;-144.99;100.00;52488.84;5090739;28;20019;-64
2021/10/28 02:06:11;;;;;;;;;;;;;;;-144.99;100.00;52513.31;5090893;28;19980;-64
2021/10/28 02:08:37;;;;;;;;;;;;;;;-144.99;100.00;52525.56;5090229;28;19986;-64
2021/10/28 02:11:04;;;;;;;;;;;;;;;-144.99;100.00;52519.44;5090915;28;19988;-65
2021/10/28 02:13:31;;;;;;;;;;;;;;;-144.99;100.00;52490.91;5090724;28;19992;-65
2021/10/28 02:15:58;;;;;;;;;;;;;;;-144.99;100.00;52550.00;5090720;28;19979;-64
2021/10/28 02:18:25;;;;;;;;;;;;;;;-144.99;100.00;52488.84;5077698;28;20610;-59
2021/10/28 02:20:51;;;;;;;;;;;;;;;-144.99;100.00;52513.31;5089858;28;19982;-61
2021/10/28 02:23:17;;;;;;;;;;;;;;;-144.99;100.00;52505.16;5090714;28;20054;-59
2021/10/28 02:25:44;;;;;;;;;;;;;;;-144.99;100.00;52472.56;5090504;28;19988;-59
2021/10/28 02:28:10;;;;;;;;;;;;;;;-144.99;100.00;52509.25;5090043;28;19991;-59
2021/10/28 02:30:38;;;;;;;;;;;;;;;-144.99;100.00;52509.25;5090100;28;20070;-59
2021/10/28 02:33:04;;;;;;;;;;;;;;;-144.99;100.00;52464.41;5090168;28;20007;-60
2021/10/28 02:35:31;;;;;;;;;;;;;;;-144.99;100.00;52545.94;5090372;28;19972;-59
2021/10/28 02:37:57;;;;;;;;;;;;;;;-144.99;100.00;52505.16;5090022;28;20455;-60
2021/10/28 02:40:24;;;;;;;;;;;;;;;-144.99;100.00;52531.66;5089961;28;19973;-62
2021/10/28 02:42:51;;;;;;;;;;;;;;;-144.99;100.00;52513.31;5087883;28;20023;-62
2021/10/28 02:45:17;;;;;;;;;;;;;;;-144.99;100.00;52505.16;5090024;28;19973;-62
2021/10/28 02:47:49;;;;;;;;;;;;;;;-144.99;100.00;52490.91;5080196;28;20011;-62
2021/10/28 02:50:15;;;;;;;;;;;;;;;-144.99;100.00;52554.09;5089723;28;19981;-61
2021/10/28 02:52:42;;;;;;;;;;;;;;;-144.99;100.00;52511.28;5090029;28;20007;-61
2021/10/28 02:55:09;;;;;;;;;;;;;;;-144.99;100.00;52497.00;5090197;28;20409;-61
2021/10/28 02:57:35;;;;;;;;;;;;;;;-144.99;100.00;52464.41;5089711;28;19987;-61
2021/10/28 03:00:02;;;;;;;;;;;;;;;-144.99;100.00;52511.28;5089897;28;19988;-59
2021/10/28 03:02:28;;;;;;;;;;;;;;;-144.99;100.00;52527.59;5082164;28;19989;-59
2021/10/28 03:04:56;;;;;;;;;;;;;;;-144.99;100.00;52550.00;5088593;28;19989;-59
2021/10/28 03:07:23;;;;;;;;;;;;;;;-144.99;100.00;52517.41;5089905;28;19987;-59
2021/10/28 03:09:49;;;;;;;;;;;;;;;-144.99;100.00;52470.50;5089937;28;19991;-59
2021/10/28 03:12:16;;;;;;;;;;;;;;;-144.99;100.00;52513.31;5089412;28;20091;-60
2021/10/28 03:14:45;;;;;;;;;;;;;;;-144.99;100.00;52513.31;5086643;28;20071;-60
2021/10/28 03:17:30;;;;;;;;;;;;;;;-144.99;100.00;52494.97;5089982;28;19976;-59
2021/10/28 03:25:39;;;;;;;;;;;;;;;-144.99;100.00;52521.47;5101354;22;20487;-67
2021/10/28 03:28:06;;;;;;;;;;;;;;;-144.99;100.00;52488.84;5101399;28;19973;-67
2021/10/28 03:30:32;;;;;;;;;;;;;;;-144.99;100.00;52488.84;5104916;28;20015;-66
2021/10/28 03:33:01;;;;;;;;;;;;;;;-144.99;100.00;52488.84;5089105;28;20007;-68
2021/10/28 03:35:29;;;;;;;;;;;;;;;-144.99;100.00;52497.00;5071289;28;19973;-67
2021/10/28 03:37:58;;;;;;;;;;;;;;;-144.99;100.00;52492.94;5070659;28;20023;-67
2021/10/28 03:40:49;;;;;;;;;;;;;;;-144.99;100.00;52472.56;5071424;28;20032;-68
2021/10/28 03:43:49;;;;;;;;;;;;;;;-144.99;100.00;52492.94;5069551;28;20468;-67
2021/10/28 04:00:24;;;;;;;;;;;;;;;-144.99;100.00;52505.16;5075456;28;19984;-70
2021/10/28 04:30:26;;;;;;;;;;;;;;;-144.99;100.00;52482.75;5035367;28;20336;-71
2021/10/28 04:32:54;;;;;;;;;;;;;;;-144.99;100.00;52523.50;5085853;28;20086;-67
2021/10/28 04:35:21;;;;;;;;;;;;;;;-144.99;100.00;52521.47;5086955;28;19973;-67
2021/10/28 04:37:48;;;;;;;;;;;;;;;-144.99;100.00;52505.16;5079896;28;19985;-67
2021/10/28 04:40:16;;;;;;;;;;;;;;;-144.99;100.00;52519.44;5079031;28;20063;-66
2021/10/28 04:42:42;;;;;;;;;;;;;;;-144.99;100.00;52484.78;5079776;28;20001;-67
2021/10/28 04:45:09;;;;;;;;;;;;;;;-144.99;100.00;52527.59;5072911;28;19979;-67
2021/10/28 04:47:35;;;;;;;;;;;;;;;-144.99;100.00;52529.63;5072000;28;19978;-67
2021/10/28 04:50:02;;;;;;;;;;;;;;;-144.99;100.00;52509.25;5083675;28;19981;-67
2021/10/28 04:52:28;;;;;;;;;;;;;;;-144.99;100.00;52511.28;5090100;28;20516;-67
2021/10/28 04:54:54;;;;;;;;;;;;;;;-144.99;100.00;52525.56;5092815;28;20066;-67
2021/10/28 04:57:25;;;;;;;;;;;;;;;-144.99;100.00;52529.63;5074003;28;20034;-70
2021/10/28 04:59:51;;;;;;;;;;;;;;;-144.99;100.00;52525.56;5074642;28;20503;-72
2021/10/28 05:02:18;;;;;;;;;;;;;;;-144.99;100.00;52570.38;5074511;28;20084;-73
2021/10/28 05:04:44;;;;;;;;;;;;;;;-144.99;100.00;52521.47;5073202;28;20004;-73
2021/10/28 05:07:10;;;;;;;;;;;;;;;-144.99;100.00;52515.34;5082345;28;19981;-72
2021/10/28 05:09:40;;;;;;;;;;;;;;;-144.99;100.00;52494.97;5074102;28;20376;-73
2021/10/28 05:12:07;;;;;;;;;;;;;;;-144.99;100.00;52550.00;4017996;28;10000930;-72
2021/10/28 05:14:34;;;;;;;;;;;;;;;-144.99;100.00;52537.78;5066104;28;19972;-72
2021/10/28 05:17:01;;;;;;;;;;;;;;;-144.99;100.00;52513.31;5070868;28;20468;-72
2021/10/28 05:19:29;;;;;;;;;;;;;;;-144.99;100.00;52560.19;5070724;28;19987;-72
2021/10/28 05:21:55;;;;;;;;;;;;;;;-144.99;100.00;52550.00;5075710;28;20032;-72
2021/10/28 05:24:21;;;;;;;;;;;;;;;-144.99;100.00;52513.31;5068581;28;20349;-72
2021/10/28 05:26:48;;;;;;;;;;;;;;;-144.99;100.00;52529.63;5078873;28;19981;-72
2021/10/28 05:29:14;;;;;;;;;;;;;;;-144.99;100.00;52525.56;5087661;28;19980;-72
2021/10/28 05:31:42;;;;;;;;;;;;;;;-144.99;100.00;52525.56;5094998;28;19980;-72
2021/10/28 05:34:08;;;;;;;;;;;;;;;-144.99;100.00;52541.84;5089921;28;21043;-72
2021/10/28 05:36:35;;;;;;;;;;;;;;;-144.99;100.00;52509.25;5076541;28;20004;-72
2021/10/28 05:39:01;;;;;;;;;;;;;;;-144.99;100.00;52525.56;5071972;28;19989;-72
2021/10/28 05:41:28;;;;;;;;;;;;;;;-144.99;100.00;52507.19;5069045;28;19984;-72
2021/10/28 05:43:54;;;;;;;;;;;;;;;-144.99;100.00;52515.34;5072410;28;20006;-72
2021/10/28 05:46:21;;;;;;;;;;;;;;;-144.99;100.00;52517.41;5073629;28;19973;-72
2021/10/28 05:48:48;;;;;;;;;;;;;;;-144.99;100.00;52517.41;5069283;28;19980;-72
2021/10/28 05:51:16;;;;;;;;;;;;;;;-144.99;100.00;52505.16;5068289;28;19984;-72
2021/10/28 05:53:42;;;;;;;;;;;;;;;-144.99;100.00;52519.44;5075508;28;19997;-72
2021/10/28 05:56:09;;;;;;;;;;;;;;;-144.99;100.00;52545.94;5079937;28;19991;-72
2021/10/28 05:58:35;;;;;;;;;;;;;;;-144.99;100.00;52541.84;5088715;28;19999;-72
2021/10/28 06:01:01;;;;;;;;;;;;;;;-144.99;100.00;52525.56;5081207;28;20441;-72
2021/10/28 06:03:28;;;;;;;;;;;;;;;-144.99;100.00;52550.00;5074866;28;20465;-72
2021/10/28 06:05:56;;;;;;;;;;;;;;;-144.99;100.00;52572.44;5079355;28;20218;-72
2021/10/28 06:08:23;;;;;;;;;;;;;;;-144.99;100.00;52545.94;5085317;28;19981;-72
2021/10/28 06:10:49;;;;;;;;;;;;;;;-144.99;100.00;52574.47;5073591;28;20028;-72
2021/10/28 06:13:16;;;;;;;;;;;;;;;-144.99;100.00;52505.16;5078114;28;19996;-72
2021/10/28 06:15:43;;;;;;;;;;;;;;;-144.99;100.00;52537.78;5079394;28;19980;-72
2021/10/28 06:18:34;;;;;;;;;;;;;;;-144.99;100.00;52545.94;5068660;28;19981;-72
2021/10/28 06:21:01;;;;;;;;;;;;;;;-144.99;100.00;52533.69;5068893;28;20423;-72
2021/10/28 06:23:27;;;;;;;;;;;;;;;-144.99;100.00;52529.63;5072760;28;19997;-72
2021/10/28 06:25:54;;;;;;;;;;;;;;;-144.99;100.00;52562.25;5082167;28;20469;-72
2021/10/28 06:28:20;;;;;;;;;;;;;;;-144.99;100.00;52554.09;5088159;28;20326;-72
2021/10/28 06:30:46;;;;;;;;;;;;;;;-144.99;100.00;52564.28;5074430;28;19976;-72
2021/10/28 06:33:18;;;;;;;;;;;;;;;-144.99;100.00;52525.56;5079306;28;20374;-72
2021/10/28 06:35:45;;;;;;;;;;;;;;;-144.99;100.00;52525.56;5071242;28;19984;-72
2021/10/28 06:38:13;;;;;;;;;;;;;;;-144.99;100.00;52537.78;5087627;28;19987;-72
2021/10/28 06:40:39;;;;;;;;;;;;;;;-144.99;100.00;52531.66;5088587;28;20410;-72
2021/10/28 06:43:06;;;;;;;;;;;;;;;-144.99;100.00;52562.25;5070456;28;20369;-72
2021/10/28 06:45:32;;;;;;;;;;;;;;;-144.99;100.00;52537.78;5067814;28;19999;-72
2021/10/28 06:47:59;;;;;;;;;;;;;;;-144.99;100.00;52503.13;5071947;28;19988;-72
2021/10/28 06:50:28;;;;;;;;;;;;;;;-144.99;100.00;52537.78;5090908;28;19984;-72
2021/10/28 06:52:57;;;;;;;;;;;;;;;-144.99;100.00;52515.34;5085070;28;20000;-72
2021/10/28 06:55:33;;;;;;;;;;;;;;;-144.99;100.00;52513.31;5088596;28;20259;-72
2021/10/28 07:02:15;;;;;;;;;;;;;;;-144.99;100.00;52521.47;5088311;28;19984;-72
2021/10/28 07:03:33;;;;;;;;;;;;;;;-144.99;100.00;52472.56;5072398;28;20023;-72
2021/10/28 07:06:03;;;;;;;;;;;;;;;-144.99;100.00;52543.91;5087689;28;19932;-72
2021/10/28 07:08:29;;;;;;;;;;;;;;;-144.99;100.00;52525.56;5088203;28;19984;-72
2021/10/28 07:10:59;;;;;;;;;;;;;;;-144.99;100.00;52470.50;5087659;28;19985;-72
2021/10/28 07:13:28;;;;;;;;;;;;;;;-144.99;100.00;52492.94;5070822;28;19993;-72
2021/10/28 07:15:58;;;;;;;;;;;;;;;-144.99;100.00;52517.41;5067395;28;19991;-72
2021/10/28 07:18:27;;;;;;;;;;;;;;;-144.99;100.00;52505.16;5054577;28;20221;-72
2021/10/28 07:26:30;;;;;;;;;;;;;;;-144.99;98.49;52480.72;5036695;28;19984;-72
2021/10/28 07:29:09;;;;;;;;;;;;;;;-144.99;97.50;52527.59;5067641;28;20435;-72
2021/10/28 07:34:43;;;;;;;;;;;;;;;-144.99;94.88;52497.00;5030555;28;20326;-72
2021/10/28 07:59:26;;;;;;;;;;;;;;;-144.99;89.97;52448.09;5081980;28;20482;-73
2021/10/28 08:18:55;;;;;;;;;;;;;;;-144.99;85.95;52509.25;5002591;28;20456;-73
2021/10/28 08:24:18;;;;;;;;;;;;;;;-144.99;83.89;52484.78;5066976;28;20003;-72
2021/10/28 08:29:32;;;;;;;;;;;;;;;-144.99;82.71;52450.13;5069427;28;20349;-72
2021/10/28 08:32:00;;;;;;;;;;;;;;;-144.99;81.98;52486.81;5082279;28;20112;-72
2021/10/28 08:34:29;;;;;;;;;;;;;;;-144.99;80.86;52439.94;5080214;28;19981;-72
2021/10/28 08:36:55;;;;;;;;;;;;;;;-144.99;79.53;52464.41;5067410;28;20399;-72
2021/10/28 08:39:22;;;;;;;;;;;;;;;-144.99;76.68;52472.56;5081271;28;20063;-72
2021/10/28 08:41:49;;;;;;;;;;;;;;;-144.99;75.89;52395.09;5088679;28;20023;-72
2021/10/28 08:44:16;;;;;;;;;;;;;;;-144.99;75.05;52419.56;5072571;28;20000;-72
2021/10/28 08:46:45;;;;;;;;;;;;;;;-144.99;73.66;52407.31;5069732;28;20402;-72
2021/10/28 08:49:19;;;;;;;;;;;;;;;-144.99;72.93;52419.56;5069837;28;19991;-73
2021/10/28 08:51:53;;;;;;;;;;;;;;;-144.99;72.70;52468.47;5069648;28;20004;-73
2021/10/28 08:57:26;;;;;;;;;;;;;;;-144.99;71.08;52419.56;5063595;28;20452;-72
2021/10/28 09:23:51;;;;;;;;;;;;;;;-144.99;70.82;52437.91;5068887;28;19988;-71
2021/10/28 09:25:19;;;;;;;;;;;;;;;-144.99;69.28;52433.81;5071882;28;20175;-71
2021/10/28 09:27:47;;;;;;;;;;;;;;;-144.99;67.36;52407.31;5096233;22;19996;-66
2021/10/28 09:30:25;;;;;;;;;;;;;;;-144.99;65.27;52397.13;5084179;28;19954;-66
2021/10/28 09:32:53;;;;;;;;;;;;;;;-144.99;62.88;52366.56;5082507;28;20007;-68
2021/10/28 09:35:46;;;;;;;;;;;;;;;-144.99;60.32;52342.09;5067719;28;19973;-67
2021/10/28 09:44:02;;;;;;;;;;;;;;;-144.99;57.11;52321.72;5066703;28;20071;-66
2021/10/28 09:46:37;;;;;;;;;;;;;;;-144.99;57.55;52329.88;5067121;28;19973;-66
2021/10/28 09:51:58;;;;;;;;;;;;;;;-144.99;56.34;52350.25;5067865;28;20411;-67
2021/10/28 09:54:33;;;;;;;;;;;;;;;-144.99;57.15;52382.88;5067377;28;19973;-67
2021/10/28 09:59:48;;;;;;;;;;;;;;;-144.99;56.54;52325.81;5067584;28;19988;-66
2021/10/28 10:02:17;;;;;;;;;;;;;;;-144.99;55.66;52321.72;5059692;28;20004;-68
2021/10/28 10:04:45;;;;;;;;;;;;;;;-144.99;54.72;52358.41;5081035;28;20585;-67
2021/10/28 10:07:13;;;;;;;;;;;;;;;-144.99;54.54;52285.03;5066960;28;19981;-68
2021/10/28 10:09:41;;;;;;;;;;;;;;;-144.99;53.47;52280.97;5068141;28;19988;-66
2021/10/28 10:12:08;;;;;;;;;;;;;;;-144.99;53.24;52260.56;5066352;28;19994;-66
2021/10/28 10:14:35;;;;;;;;;;;;;;;-144.99;52.30;52276.88;5066871;28;19977;-67
2021/10/28 10:17:02;;;;;;;;;;;;;;;-144.99;52.64;52248.34;5067192;28;19980;-67
2021/10/28 10:19:30;;;;;;;;;;;;;;;-144.99;51.81;52221.84;5066115;28;19983;-66
2021/10/28 10:21:57;;;;;;;;;;;;;;;-144.99;50.49;52195.34;5066774;28;20433;-66
2021/10/28 10:24:38;;;;;;;;;;;;;;;-144.99;49.11;52207.59;5064893;28;19996;-66
2021/10/28 11:27:15;;;;;;;;;;;;;;;-144.99;44.49;52134.22;5065218;28;19985;-66
2021/10/28 11:32:48;;;;;;;;;;;;;;;-144.99;43.41;52126.06;5066081;28;20375;-67
2021/10/28 12:14:36;;;;;;;;;;;;;;;-144.99;41.04;52107.72;5067104;28;20008;-68
2021/10/28 12:20:15;;;;;;;;;;;;;;;-144.99;40.79;52085.31;5042606;28;20059;-67
2021/10/28 12:45:30;;;;;;;;;;;;;;;-144.99;40.69;52101.59;5116399;28;20255;-66
2021/10/28 12:48:33;;;;;;;;;;;;;;;-144.99;40.02;52079.19;5113742;27;19972;-67
2021/10/28 12:51:18;;;;;;;;;;;;;;;-144.99;39.15;52032.31;5106810;27;20366;-68
2021/10/28 12:54:03;;;;;;;;;;;;;;;-144.99;38.53;52040.47;5103642;28;19992;-68
2021/10/28 12:56:49;;;;;;;;;;;;;;;-144.99;38.95;52024.16;5108678;28;19976;-67
2021/10/28 13:05:33;;;;;;;;;;;;;;;-144.99;40.63;52154.59;5071587;27;20431;-67
2021/10/28 13:35:52;;;;;;;;;;;;;;;-144.99;38.22;52060.84;5096980;28;20042;-67
2021/10/28 13:49:28;;;;;;;;;;;;;;;-144.99;41.00;52209.63;5078997;28;20071;-67
2021/10/28 13:52:07;;;;;;;;;;;;;;;-144.99;42.15;52203.50;5092160;28;19996;-66
2021/10/28 13:55:03;;;;;;;;;;;;;;;-144.99;40.91;52179.06;5094601;28;20032;-66
2021/10/28 13:57:45;;;;;;;;;;;;;;;-144.99;40.63;52150.53;5091350;28;20515;-67
2021/10/28 14:00:44;;;;;;;;;;;;;;;-144.99;39.79;52179.06;5088962;28;20000;-67
2021/10/28 14:22:41;;;;;;;;;;;;;;;-144.99;40.45;52187.19;5090298;28;20007;-65
2021/10/28 14:36:48;;;;;;;;;;;;;;;-144.99;41.29;52223.88;5059573;28;20008;-67
2021/10/28 14:39:34;;;;;;;;;;;;;;;-144.99;41.11;52264.66;5091806;28;20498;-67
2021/10/28 15:28:49;;;;;;;;;;;;;;;-144.99;62.22;52499.06;5069857;22;20500;-73
2021/10/28 15:37:05;;;;;;;;;;;;;;;-144.99;63.89;52456.25;4972298;28;19974;-73
2021/10/28 15:39:37;;;;;;;;;;;;;;;-144.99;63.89;52505.16;5021095;28;20007;-74
2021/10/28 15:53:18;;;;;;;;;;;;;;;-144.99;65.61;52472.56;5025122;28;20355;-73
2021/10/28 16:01:39;;;;;;;;;;;;;;;-144.99;66.76;52488.84;5039079;28;20009;-72
2021/10/28 16:23:18;;;;;;;;;;;;;;;-144.99;69.30;52488.84;5052434;28;20004;-71
2021/10/28 16:25:46;;;;;;;;;;;;;;;-144.99;70.10;52460.31;5036408;28;20207;-72
2021/10/28 16:28:15;;;;;;;;;;;;;;;-144.99;70.05;52497.00;5038668;28;19981;-73
2021/10/28 16:30:42;;;;;;;;;;;;;;;-144.99;70.50;52452.16;5033593;28;20485;-74
2021/10/28 16:33:08;;;;;;;;;;;;;;;-144.99;70.59;52456.25;5047449;28;20001;-73
2021/10/28 16:35:34;;;;;;;;;;;;;;;-144.99;71.31;52448.09;5039772;28;20251;-73
2021/10/28 16:38:03;;;;;;;;;;;;;;;-144.99;71.38;52468.47;5046889;28;19988;-72
2021/10/28 16:40:31;;;;;;;;;;;;;;;-144.99;71.63;52472.56;5047435;28;20352;-72
2021/10/28 16:42:57;;;;;;;;;;;;;;;-144.99;71.78;52494.97;5046235;28;19997;-73
2021/10/28 16:45:24;;;;;;;;;;;;;;;-144.99;71.53;52480.72;5042163;28;19985;-72
2021/10/28 16:47:50;;;;;;;;;;;;;;;-144.99;71.58;52476.63;5038580;28;20015;-72
2021/10/28 16:50:16;;;;;;;;;;;;;;;-144.99;71.37;52456.25;5030370;28;20496;-72
2021/10/28 16:52:44;;;;;;;;;;;;;;;-144.99;71.35;52470.50;5026601;28;20001;-72
2021/10/28 16:55:10;;;;;;;;;;;;;;;-144.99;71.62;52476.63;5039017;28;20378;-71
2021/10/28 16:57:39;;;;;;;;;;;;;;;-144.99;71.78;52472.56;5037632;28;19991;-72
2021/10/28 17:00:06;;;;;;;;;;;;;;;-144.99;71.26;52492.94;5032281;28;20493;-72
2021/10/28 17:02:33;;;;;;;;;;;;;;;-144.99;71.08;52484.78;5032783;28;19998;-70
2021/10/28 17:04:59;;;;;;;;;;;;;;;-144.99;71.28;52488.84;5029474;28;20012;-71
2021/10/28 17:07:26;;;;;;;;;;;;;;;-144.99;71.03;52484.78;5030681;28;20472;-73
2021/10/28 17:09:53;;;;;;;;;;;;;;;-144.99;70.87;52444.03;5039907;28;20042;-71
2021/10/28 17:12:19;;;;;;;;;;;;;;;-144.99;70.79;52456.25;5043269;28;20488;-72
2021/10/28 17:14:48;;;;;;;;;;;;;;;-144.99;70.59;52492.94;5046247;28;19985;-72
2021/10/28 17:17:15;;;;;;;;;;;;;;;-144.99;70.88;52472.56;5034798;28;20047;-72
2021/10/28 17:19:42;;;;;;;;;;;;;;;-144.99;70.80;52460.31;5034732;28;20365;-72
2021/10/28 17:22:08;;;;;;;;;;;;;;;-144.99;70.83;52484.78;5045368;28;20018;-73
2021/10/28 17:24:39;;;;;;;;;;;;;;;-144.99;70.75;52468.47;5048388;28;19982;-72
2021/10/28 17:27:06;;;;;;;;;;;;;;;-144.99;70.70;52419.56;5047547;28;20338;-72
2021/10/28 17:29:32;;;;;;;;;;;;;;;-144.99;70.74;52501.09;5045741;28;19990;-72
2021/10/28 17:32:00;;;;;;;;;;;;;;;-144.99;71.02;52482.75;5036376;28;20480;-72
2021/10/28 17:34:27;;;;;;;;;;;;;;;-144.99;71.37;52492.94;5046105;28;20512;-72
2021/10/28 17:36:55;;;;;;;;;;;;;;;-144.99;71.32;52488.84;5031784;28;19974;-72
2021/10/28 17:39:22;;;;;;;;;;;;;;;-144.99;71.78;52501.09;5044996;28;19989;-72
2021/10/28 17:41:48;;;;;;;;;;;;;;;-144.99;72.74;52478.66;5036748;28;19997;-72
2021/10/28 17:44:15;;;;;;;;;;;;;;;-144.99;72.74;52472.56;5044915;28;19988;-72
2021/10/28 17:46:41;;;;;;;;;;;;;;;-144.99;72.99;52468.47;5054384;28;19981;-72
2021/10/28 17:49:09;;;;;;;;;;;;;;;-144.99;73.20;52521.47;5059771;28;19984;-73
2021/10/28 17:51:38;;;;;;;;;;;;;;;-144.99;73.62;52513.31;5039802;28;20001;-72
2021/10/28 17:54:09;;;;;;;;;;;;;;;-144.99;73.75;52466.44;5029728;28;19985;-72
2021/10/28 17:56:35;;;;;;;;;;;;;;;-144.99;74.05;52474.59;5044182;28;19981;-73
2021/10/28 17:59:04;;;;;;;;;;;;;;;-144.99;74.07;52492.94;5046144;28;20358;-73
2021/10/28 18:01:30;;;;;;;;;;;;;;;-144.99;74.21;52476.63;5049564;28;20060;-73
2021/10/28 18:03:59;;;;;;;;;;;;;;;-144.99;74.18;52488.84;5049288;28;19985;-72
2021/10/28 18:06:27;;;;;;;;;;;;;;;-144.99;74.24;52501.09;5049288;28;19981;-72
2021/10/28 18:08:54;;;;;;;;;;;;;;;-144.99;74.50;52484.78;5048392;28;19980;-72
2021/10/28 18:11:20;;;;;;;;;;;;;;;-144.99;74.54;52472.56;5042997;28;20005;-72
2021/10/28 18:13:48;;;;;;;;;;;;;;;-144.99;74.85;52480.72;5044837;28;20393;-73
2021/10/28 18:16:15;;;;;;;;;;;;;;;-144.99;74.78;52452.16;5048985;28;19981;-73
2021/10/28 18:18:41;;;;;;;;;;;;;;;-144.99;75.03;52464.41;5042139;28;19978;-72
2021/10/28 18:21:08;;;;;;;;;;;;;;;-144.99;74.92;52460.31;5038587;28;19995;-72
2021/10/28 18:23:38;;;;;;;;;;;;;;;-144.99;75.29;52509.25;5048792;28;20508;-72
2021/10/28 18:26:04;;;;;;;;;;;;;;;-144.99;75.44;52462.34;5049409;28;19988;-72
2021/10/28 18:28:31;;;;;;;;;;;;;;;-144.99;75.85;52480.72;5036523;28;20271;-73
2021/10/28 18:30:58;;;;;;;;;;;;;;;-144.99;76.11;52474.59;5049580;28;19972;-73
2021/10/28 18:33:24;;;;;;;;;;;;;;;-144.99;76.62;52476.63;5047743;28;20145;-73
2021/10/28 18:35:51;;;;;;;;;;;;;;;-144.99;76.64;52476.63;5040395;28;20034;-72
2021/10/28 18:38:18;;;;;;;;;;;;;;;-144.99;76.71;52497.00;5048863;28;20011;-73
2021/10/28 18:40:46;;;;;;;;;;;;;;;-144.99;77.25;52456.25;5039667;28;19984;-73
2021/10/28 18:43:16;;;;;;;;;;;;;;;-144.99;77.53;52484.78;5047310;28;20501;-73
2021/10/28 18:45:42;;;;;;;;;;;;;;;-144.99;78.18;52439.94;5049406;28;20416;-72
2021/10/28 18:48:09;;;;;;;;;;;;;;;-144.99;78.65;52464.41;5049032;28;20368;-73
2021/10/28 18:50:36;;;;;;;;;;;;;;;-144.99;79.09;52509.25;5044090;28;20008;-73
2021/10/28 18:53:02;;;;;;;;;;;;;;;-144.99;79.47;52517.41;5045307;28;20012;-73
2021/10/28 18:55:29;;;;;;;;;;;;;;;-144.99;80.16;52456.25;5049231;28;20344;-72
2021/10/28 18:57:57;;;;;;;;;;;;;;;-144.99;80.83;52454.22;5048884;28;19985;-72
2021/10/28 19:00:24;;;;;;;;;;;;;;;-144.99;80.89;52476.63;5043994;28;19984;-72
2021/10/28 19:02:50;;;;;;;;;;;;;;;-144.99;82.01;52472.56;5048114;28;20376;-73
2021/10/28 19:05:16;;;;;;;;;;;;;;;-144.99;82.57;52505.16;5048621;28;19981;-73
2021/10/28 19:07:43;;;;;;;;;;;;;;;-144.99;83.48;52423.63;5048564;28;20001;-73
2021/10/28 19:10:10;;;;;;;;;;;;;;;-144.99;83.81;52492.94;5045427;28;19984;-73
2021/10/28 19:12:36;;;;;;;;;;;;;;;-144.99;84.70;52472.56;5037994;28;20009;-73
2021/10/28 19:15:04;;;;;;;;;;;;;;;-144.99;84.94;52452.16;5040205;28;19988;-73
2021/10/28 19:17:31;;;;;;;;;;;;;;;-144.99;85.33;52472.56;5048179;28;19977;-72
2021/10/28 19:19:57;;;;;;;;;;;;;;;-144.99;86.00;52488.84;5048471;28;20239;-73
2021/10/28 19:22:30;;;;;;;;;;;;;;;-144.99;85.93;52484.78;5030680;28;19997;-72
2021/10/28 19:24:56;;;;;;;;;;;;;;;-144.99;87.29;52476.63;5047606;28;19981;-72
2021/10/28 19:27:23;;;;;;;;;;;;;;;-144.99;87.37;52480.72;5048153;28;19988;-72
2021/10/28 19:29:54;;;;;;;;;;;;;;;-144.99;87.47;52505.16;5047973;28;20088;-73
2021/10/28 19:32:23;;;;;;;;;;;;;;;-144.99;87.57;52458.28;5036197;28;20099;-73
2021/10/28 19:34:50;;;;;;;;;;;;;;;-144.99;88.01;52476.63;5048203;28;20438;-73
2021/10/28 19:37:20;;;;;;;;;;;;;;;-144.99;87.84;52448.09;5048442;28;19985;-72
2021/10/28 19:45:33;;;;;;;;;;;;;;;-144.99;88.96;52492.94;5040605;28;20042;-67
2021/10/28 19:48:01;;;;;;;;;;;;;;;-144.99;89.10;52501.09;5048293;28;20055;-68
2021/10/28 19:50:27;;;;;;;;;;;;;;;-144.99;89.41;52492.94;5030590;28;19981;-68
2021/10/28 19:52:54;;;;;;;;;;;;;;;-144.99;89.40;52468.47;5038072;28;20041;-68
2021/10/28 19:55:20;;;;;;;;;;;;;;;-144.99;90.33;52492.94;5040838;28;19988;-69
2021/10/28 19:57:51;;;;;;;;;;;;;;;-144.99;90.38;52472.56;5043024;28;20067;-69
2021/10/28 20:00:25;;;;;;;;;;;;;;;-144.99;91.07;52462.34;5049034;28;19985;-73
2021/10/28 20:05:42;;;;;;;;;;;;;;;-144.99;92.14;52486.81;5040938;28;20048;-71